sensor_id;sensor_type;location;lat;lon;timestamp;pressure;altitude;pressure_sealevel;temperature
18474;BMP180;30265;52.408;13.500;2022-07-11T00:07:30;101707.00;;;15.20
18474;BMP180;30265;52.408;13.500;2022-07-11T00:17:52;101721.00;;;15.30
18474;BMP180;30265;52.408;13.500;2022-07-11T00:28:16;101714.00;;;15.30
18474;BMP180;30265;52.408;13.500;2022-07-11T00:38:38;101699.00;;;15.30
18474;BMP180;30265;52.408;13.500;2022-07-11T00:49:01;101708.00;;;15.00
18474;BMP180;30265;52.408;13.500;2022-07-11T00:59:23;101713.00;;;14.80
18474;BMP180;30265;52.408;13.500;2022-07-11T01:09:47;101708.00;;;14.70
18474;BMP180;30265;52.408;13.500;2022-07-11T01:20:10;101708.00;;;14.30
18474;BMP180;30265;52.408;13.500;2022-07-11T01:30:34;101729.00;;;13.90
18474;BMP180;30265;52.408;13.500;2022-07-11T01:40:56;101727.00;;;13.40
18474;BMP180;30265;52.408;13.500;2022-07-11T01:51:19;101729.00;;;13.20
18474;BMP180;30265;52.408;13.500;2022-07-11T02:01:41;101732.00;;;12.80
18474;BMP180;30265;52.408;13.500;2022-07-11T02:12:06;101722.00;;;12.50
18474;BMP180;30265;52.408;13.500;2022-07-11T02:22:27;101717.00;;;12.50
18474;BMP180;30265;52.408;13.500;2022-07-11T02:32:51;101730.00;;;12.00
18474;BMP180;30265;52.408;13.500;2022-07-11T02:43:13;101722.00;;;11.80
18474;BMP180;30265;52.408;13.500;2022-07-11T02:53:37;101732.00;;;11.60
18474;BMP180;30265;52.408;13.500;2022-07-11T03:04:00;101736.00;;;11.60
18474;BMP180;30265;52.408;13.500;2022-07-11T03:14:23;101744.00;;;11.50
18474;BMP180;30265;52.408;13.500;2022-07-11T03:24:44;101740.00;;;12.00
18474;BMP180;30265;52.408;13.500;2022-07-11T03:35:08;101745.00;;;11.90
18474;BMP180;30265;52.408;13.500;2022-07-11T03:45:48;101729.00;;;12.30
18474;BMP180;30265;52.408;13.500;2022-07-11T03:56:11;101726.00;;;12.50
18474;BMP180;30265;52.408;13.500;2022-07-11T04:06:33;101730.00;;;12.60
18474;BMP180;30265;52.408;13.500;2022-07-11T04:16:56;101737.00;;;12.70
18474;BMP180;30265;52.408;13.500;2022-07-11T04:27:18;101734.00;;;12.90
18474;BMP180;30265;52.408;13.500;2022-07-11T04:37:44;101723.00;;;13.00
18474;BMP180;30265;52.408;13.500;2022-07-11T04:48:05;101731.00;;;13.70
18474;BMP180;30265;52.408;13.500;2022-07-11T04:58:28;101742.00;;;13.50
18474;BMP180;30265;52.408;13.500;2022-07-11T05:08:52;101744.00;;;13.80
18474;BMP180;30265;52.408;13.500;2022-07-11T05:19:16;101757.00;;;14.30
18474;BMP180;30265;52.408;13.500;2022-07-11T05:29:37;101745.00;;;14.20
18474;BMP180;30265;52.408;13.500;2022-07-11T05:40:00;101755.00;;;14.60
18474;BMP180;30265;52.408;13.500;2022-07-11T05:50:25;101766.00;;;15.10
18474;BMP180;30265;52.408;13.500;2022-07-11T06:00:48;101767.00;;;15.50
18474;BMP180;30265;52.408;13.500;2022-07-11T06:11:11;101769.00;;;16.20
18474;BMP180;30265;52.408;13.500;2022-07-11T06:21:35;101766.00;;;16.00
18474;BMP180;30265;52.408;13.500;2022-07-11T06:31:58;101771.00;;;16.20
18474;BMP180;30265;52.408;13.500;2022-07-11T06:42:22;101776.00;;;16.70
18474;BMP180;30265;52.408;13.500;2022-07-11T06:52:50;101784.00;;;16.70
18474;BMP180;30265;52.408;13.500;2022-07-11T07:03:13;101768.00;;;16.70
18474;BMP180;30265;52.408;13.500;2022-07-11T07:13:41;101772.00;;;17.70
18474;BMP180;30265;52.408;13.500;2022-07-11T07:24:11;101769.00;;;17.50
18474;BMP180;30265;52.408;13.500;2022-07-11T07:34:44;101787.00;;;18.60
18474;BMP180;30265;52.408;13.500;2022-07-11T07:45:10;101786.00;;;18.10
18474;BMP180;30265;52.408;13.500;2022-07-11T07:55:34;101787.00;;;17.70
18474;BMP180;30265;52.408;13.500;2022-07-11T08:06:00;101802.00;;;19.00
18474;BMP180;30265;52.408;13.500;2022-07-11T08:16:23;101808.00;;;18.40
18474;BMP180;30265;52.408;13.500;2022-07-11T08:26:48;101808.00;;;18.70
18474;BMP180;30265;52.408;13.500;2022-07-11T08:37:10;101792.00;;;19.60
18474;BMP180;30265;52.408;13.500;2022-07-11T08:47:41;101811.00;;;19.00
18474;BMP180;30265;52.408;13.500;2022-07-11T08:58:13;101812.00;;;19.30
18474;BMP180;30265;52.408;13.500;2022-07-11T09:08:36;101789.00;;;20.40
18474;BMP180;30265;52.408;13.500;2022-07-11T09:18:58;101804.00;;;20.20
18474;BMP180;30265;52.408;13.500;2022-07-11T09:29:22;101808.00;;;20.30
18474;BMP180;30265;52.408;13.500;2022-07-11T09:39:46;101784.00;;;20.30
18474;BMP180;30265;52.408;13.500;2022-07-11T09:50:10;101796.00;;;20.70
18474;BMP180;30265;52.408;13.500;2022-07-11T10:00:33;101800.00;;;19.80
18474;BMP180;30265;52.408;13.500;2022-07-11T10:10:56;101797.00;;;20.60
18474;BMP180;30265;52.408;13.500;2022-07-11T10:21:22;101798.00;;;21.10
18474;BMP180;30265;52.408;13.500;2022-07-11T10:32:05;101782.00;;;21.40
18474;BMP180;30265;52.408;13.500;2022-07-11T10:42:38;101800.00;;;20.40
18474;BMP180;30265;52.408;13.500;2022-07-11T10:53:07;101788.00;;;21.00
18474;BMP180;30265;52.408;13.500;2022-07-11T11:03:29;101775.00;;;23.70
18474;BMP180;30265;52.408;13.500;2022-07-11T11:14:25;101772.00;;;23.40
18474;BMP180;30265;52.408;13.500;2022-07-11T11:24:52;101805.00;;;22.00
18474;BMP180;30265;52.408;13.500;2022-07-11T11:35:36;101766.00;;;23.80
18474;BMP180;30265;52.408;13.500;2022-07-11T11:45:58;101787.00;;;22.50
18474;BMP180;30265;52.408;13.500;2022-07-11T11:56:23;101776.00;;;23.20
18474;BMP180;30265;52.408;13.500;2022-07-11T12:06:48;101761.00;;;23.50
18474;BMP180;30265;52.408;13.500;2022-07-11T12:17:12;101749.00;;;23.00
18474;BMP180;30265;52.408;13.500;2022-07-11T12:27:34;101743.00;;;24.70
18474;BMP180;30265;52.408;13.500;2022-07-11T12:37:58;101766.00;;;23.10
18474;BMP180;30265;52.408;13.500;2022-07-11T12:48:22;101758.00;;;22.90
18474;BMP180;30265;52.408;13.500;2022-07-11T12:59:22;101736.00;;;25.00
18474;BMP180;30265;52.408;13.500;2022-07-11T13:10:17;101764.00;;;23.40
18474;BMP180;30265;52.408;13.500;2022-07-11T13:20:40;101737.00;;;23.20
18474;BMP180;30265;52.408;13.500;2022-07-11T13:31:06;101766.00;;;23.40
18474;BMP180;30265;52.408;13.500;2022-07-11T13:41:36;101758.00;;;22.80
18474;BMP180;30265;52.408;13.500;2022-07-11T13:51:58;101781.00;;;22.50
18474;BMP180;30265;52.408;13.500;2022-07-11T14:02:21;101754.00;;;23.00
18474;BMP180;30265;52.408;13.500;2022-07-11T14:12:43;101757.00;;;24.50
18474;BMP180;30265;52.408;13.500;2022-07-11T14:23:06;101756.00;;;23.40
18474;BMP180;30265;52.408;13.500;2022-07-11T14:33:28;101763.00;;;24.30
18474;BMP180;30265;52.408;13.500;2022-07-11T14:43:54;101769.00;;;23.60
18474;BMP180;30265;52.408;13.500;2022-07-11T14:54:16;101780.00;;;23.10
18474;BMP180;30265;52.408;13.500;2022-07-11T15:04:40;101771.00;;;23.00
18474;BMP180;30265;52.408;13.500;2022-07-11T15:15:07;101770.00;;;24.00
18474;BMP180;30265;52.408;13.500;2022-07-11T15:25:31;101782.00;;;23.50
18474;BMP180;30265;52.408;13.500;2022-07-11T15:35:52;101768.00;;;23.10
18474;BMP180;30265;52.408;13.500;2022-07-11T15:46:17;101784.00;;;23.10
18474;BMP180;30265;52.408;13.500;2022-07-11T15:56:38;101791.00;;;23.10
18474;BMP180;30265;52.408;13.500;2022-07-11T16:07:02;101791.00;;;23.50
18474;BMP180;30265;52.408;13.500;2022-07-11T16:17:25;101798.00;;;23.00
18474;BMP180;30265;52.408;13.500;2022-07-11T16:27:48;101798.00;;;22.80
18474;BMP180;30265;52.408;13.500;2022-07-11T16:38:11;101803.00;;;22.60
18474;BMP180;30265;52.408;13.500;2022-07-11T16:48:34;101801.00;;;22.60
18474;BMP180;30265;52.408;13.500;2022-07-11T16:58:56;101808.00;;;22.50
18474;BMP180;30265;52.408;13.500;2022-07-11T17:09:20;101790.00;;;22.60
18474;BMP180;30265;52.408;13.500;2022-07-11T17:19:42;101772.00;;;23.40
18474;BMP180;30265;52.408;13.500;2022-07-11T17:30:07;101783.00;;;23.30
18474;BMP180;30265;52.408;13.500;2022-07-11T17:40:29;101798.00;;;23.10
18474;BMP180;30265;52.408;13.500;2022-07-11T17:50:53;101812.00;;;22.60
18474;BMP180;30265;52.408;13.500;2022-07-11T18:01:41;101806.00;;;22.90
18474;BMP180;30265;52.408;13.500;2022-07-11T18:12:05;101809.00;;;23.20
18474;BMP180;30265;52.408;13.500;2022-07-11T18:22:27;101816.00;;;22.90
18474;BMP180;30265;52.408;13.500;2022-07-11T18:32:50;101806.00;;;22.70
18474;BMP180;30265;52.408;13.500;2022-07-11T18:43:12;101828.00;;;21.90
18474;BMP180;30265;52.408;13.500;2022-07-11T18:53:37;101829.00;;;21.50
18474;BMP180;30265;52.408;13.500;2022-07-11T19:03:59;101841.00;;;21.10
18474;BMP180;30265;52.408;13.500;2022-07-11T19:14:24;101862.00;;;20.70
18474;BMP180;30265;52.408;13.500;2022-07-11T19:24:46;101864.00;;;20.30
18474;BMP180;30265;52.408;13.500;2022-07-11T19:35:10;101874.00;;;20.20
18474;BMP180;30265;52.408;13.500;2022-07-11T19:45:32;101875.00;;;19.90
18474;BMP180;30265;52.408;13.500;2022-07-11T19:55:56;101884.00;;;19.40
18474;BMP180;30265;52.408;13.500;2022-07-11T20:06:35;101904.00;;;19.10
18474;BMP180;30265;52.408;13.500;2022-07-11T20:16:58;101906.00;;;18.70
18474;BMP180;30265;52.408;13.500;2022-07-11T20:27:28;101910.00;;;18.20
18474;BMP180;30265;52.408;13.500;2022-07-11T20:37:52;101903.00;;;17.80
18474;BMP180;30265;52.408;13.500;2022-07-11T20:48:15;101913.00;;;17.50
18474;BMP180;30265;52.408;13.500;2022-07-11T20:58:39;101916.00;;;17.20
18474;BMP180;30265;52.408;13.500;2022-07-11T21:09:02;101924.00;;;16.50
18474;BMP180;30265;52.408;13.500;2022-07-11T21:19:26;101910.00;;;16.30
18474;BMP180;30265;52.408;13.500;2022-07-11T21:29:49;101934.00;;;16.20
18474;BMP180;30265;52.408;13.500;2022-07-11T21:40:13;101925.00;;;16.00
18474;BMP180;30265;52.408;13.500;2022-07-11T21:50:34;101933.00;;;15.90
18474;BMP180;30265;52.408;13.500;2022-07-11T22:00:58;101919.00;;;15.60
18474;BMP180;30265;52.408;13.500;2022-07-11T22:11:19;101922.00;;;15.80
18474;BMP180;30265;52.408;13.500;2022-07-11T22:21:43;101925.00;;;16.00
18474;BMP180;30265;52.408;13.500;2022-07-11T22:32:05;101929.00;;;15.60
18474;BMP180;30265;52.408;13.500;2022-07-11T22:42:29;101943.00;;;15.20
18474;BMP180;30265;52.408;13.500;2022-07-11T22:52:51;101938.00;;;15.50
18474;BMP180;30265;52.408;13.500;2022-07-11T23:03:20;101938.00;;;14.50
18474;BMP180;30265;52.408;13.500;2022-07-11T23:13:42;101940.00;;;14.40
18474;BMP180;30265;52.408;13.500;2022-07-11T23:24:05;101943.00;;;14.10
18474;BMP180;30265;52.408;13.500;2022-07-11T23:34:27;101937.00;;;14.10
18474;BMP180;30265;52.408;13.500;2022-07-11T23:44:50;101929.00;;;13.60
18474;BMP180;30265;52.408;13.500;2022-07-11T23:55:12;101944.00;;;13.30
